Time;durP1;ratioP1;P1;durP2;ratioP2;P2;SDS_P1;SDS_P2;PMS_P1;PMS_P2;Temp;Humidity;BMP_temperature;BMP_pressure;BME280_temperature;BME280_humidity;BME280_pressure;Samples;Min_cycle;Max_cycle;Signal;HPM_P1;HPM_P2
2024/01/21 00:01:32;;;;;;;34.63;20.25;;;;;;;;;;5054295;28;20384;-51
2024/01/21 00:03:58;;;;;;;33.97;18.83;;;;;;;;;;5035766;28;20029;-54
2024/01/21 00:06:24;;;;;;;30.17;18.95;;;;;;;;;;5054117;28;20059;-50
2024/01/21 00:08:50;;;;;;;31.95;17.58;;;;;;;;;;5035158;28;20027;-49
2024/01/21 00:11:17;;;;;;;33.00;19.00;;;;;;;;;;5035745;28;20117;-51
2024/01/21 00:13:43;;;;;;;37.05;19.40;;;;;;;;;;5018857;28;20060;-50
2024/01/21 00:16:09;;;;;;;35.87;19.77;;;;;;;;;;5053603;28;20542;-50
2024/01/21 00:18:35;;;;;;;39.47;20.77;;;;;;;;;;5035412;28;20406;-50
2024/01/21 00:21:01;;;;;;;37.33;19.67;;;;;;;;;;5053697;28;20037;-50
2024/01/21 00:23:28;;;;;;;29.20;19.23;;;;;;;;;;5035566;28;20090;-51
2024/01/21 00:25:54;;;;;;;31.55;17.52;;;;;;;;;;5053372;28;20025;-51
2024/01/21 00:28:20;;;;;;;30.43;16.80;;;;;;;;;;5053472;28;20412;-51
2024/01/21 00:30:46;;;;;;;21.98;14.57;;;;;;;;;;5035210;28;20033;-50
2024/01/21 00:33:12;;;;;;;25.97;14.27;;;;;;;;;;5053411;28;20032;-50
2024/01/21 00:35:38;;;;;;;18.52;13.13;;;;;;;;;;5053245;28;20060;-52
2024/01/21 00:38:04;;;;;;;20.40;13.03;;;;;;;;;;5053225;28;20493;-52
2024/01/21 00:40:31;;;;;;;22.48;13.65;;;;;;;;;;5053279;28;20047;-53
2024/01/21 00:42:59;;;;;;;20.77;14.23;;;;;;;;;;5052934;28;20025;-51
2024/01/21 00:45:25;;;;;;;24.48;14.25;;;;;;;;;;5052795;28;20033;-50
2024/01/21 00:47:51;;;;;;;22.92;15.10;;;;;;;;;;5053356;28;20407;-50
2024/01/21 00:50:18;;;;;;;24.85;13.23;;;;;;;;;;5053064;28;20397;-51
2024/01/21 00:52:44;;;;;;;19.60;13.33;;;;;;;;;;5052403;28;20191;-51
2024/01/21 00:55:10;;;;;;;19.17;12.60;;;;;;;;;;5052570;28;20024;-50
2024/01/21 00:57:36;;;;;;;21.25;13.80;;;;;;;;;;5051628;28;20483;-50
2024/01/21 01:00:04;;;;;;;23.10;14.00;;;;;;;;;;5035010;28;20071;-50
2024/01/21 01:02:30;;;;;;;27.30;15.18;;;;;;;;;;5052682;28;20035;-50
2024/01/21 01:04:57;;;;;;;25.73;14.68;;;;;;;;;;5051512;28;20025;-52
2024/01/21 01:07:23;;;;;;;30.73;16.30;;;;;;;;;;5034838;28;20502;-50
2024/01/21 01:09:49;;;;;;;24.57;15.60;;;;;;;;;;5052678;28;20057;-52
2024/01/21 01:12:15;;;;;;;33.33;16.00;;;;;;;;;;5052707;28;20270;-52
2024/01/21 01:14:41;;;;;;;24.08;15.85;;;;;;;;;;5052183;28;20025;-50
2024/01/21 01:17:08;;;;;;;25.43;14.33;;;;;;;;;;5052218;28;20483;-50
2024/01/21 01:19:34;;;;;;;27.75;16.00;;;;;;;;;;5052746;28;20482;-51
2024/01/21 01:22:01;;;;;;;27.80;15.85;;;;;;;;;;5052454;28;20060;-52
2024/01/21 01:24:27;;;;;;;28.70;15.53;;;;;;;;;;5034327;28;20029;-50
2024/01/21 01:26:53;;;;;;;20.30;12.43;;;;;;;;;;5052587;28;20032;-52
2024/01/21 01:29:19;;;;;;;19.95;12.60;;;;;;;;;;5052168;28;20354;-52
2024/01/21 01:31:45;;;;;;;22.47;12.37;;;;;;;;;;5051644;28;20082;-51
2024/01/21 01:34:12;;;;;;;20.20;13.27;;;;;;;;;;5052252;28;20028;-52
2024/01/21 01:36:39;;;;;;;23.40;14.52;;;;;;;;;;5051692;28;20108;-51
2024/01/21 01:39:07;;;;;;;24.33;14.75;;;;;;;;;;5052163;28;20406;-51
2024/01/21 01:41:33;;;;;;;22.70;15.77;;;;;;;;;;5052058;28;20035;-50
2024/01/21 01:43:59;;;;;;;23.30;14.10;;;;;;;;;;5051765;28;20032;-50
2024/01/21 01:46:25;;;;;;;21.10;13.60;;;;;;;;;;5050686;28;20122;-52
2024/01/21 01:48:51;;;;;;;19.40;12.43;;;;;;;;;;5035763;28;20036;-49
2024/01/21 01:51:18;;;;;;;21.93;12.50;;;;;;;;;;5051956;28;20532;-51
2024/01/21 01:53:44;;;;;;;18.00;10.98;;;;;;;;;;5051761;28;20300;-51
2024/01/21 01:56:11;;;;;;;22.85;13.68;;;;;;;;;;5034036;28;20065;-53
2024/01/21 01:58:38;;;;;;;20.45;12.43;;;;;;;;;;5033481;28;20108;-51
2024/01/21 02:01:04;;;;;;;24.02;13.68;;;;;;;;;;5051752;28;20100;-51
2024/01/21 02:03:31;;;;;;;22.02;12.27;;;;;;;;;;5050593;28;20479;-51
2024/01/21 02:05:57;;;;;;;20.07;12.00;;;;;;;;;;5051614;28;20029;-51
2024/01/21 02:08:23;;;;;;;19.93;13.07;;;;;;;;;;5051659;28;20479;-51
2024/01/21 02:10:49;;;;;;;21.20;12.97;;;;;;;;;;5033679;28;20028;-50
2024/01/21 02:13:16;;;;;;;21.97;13.07;;;;;;;;;;5031946;28;20490;-49
2024/01/21 02:15:42;;;;;;;23.40;13.20;;;;;;;;;;5028846;28;20029;-51
2024/01/21 02:18:09;;;;;;;23.33;12.73;;;;;;;;;;5051617;28;20031;-52
2024/01/21 02:20:35;;;;;;;;;;;;;;;;;;5033801;28;20039;-49
2024/01/21 02:23:04;;;;;;;21.73;13.05;;;;;;;;;;5051442;28;19971;-52
2024/01/21 02:25:30;;;;;;;26.05;13.18;;;;;;;;;;5051328;28;20391;-52
2024/01/21 02:27:56;;;;;;;24.50;12.95;;;;;;;;;;5051775;28;20027;-51
2024/01/21 02:30:22;;;;;;;21.40;12.10;;;;;;;;;;5033401;28;20024;-52
2024/01/21 02:32:49;;;;;;;14.17;9.00;;;;;;;;;;5051068;28;20029;-51
2024/01/21 02:35:15;;;;;;;21.23;12.75;;;;;;;;;;5049871;28;20641;-51
2024/01/21 02:37:41;;;;;;;20.20;12.67;;;;;;;;;;5033139;28;20032;-52
2024/01/21 02:40:08;;;;;;;20.98;12.75;;;;;;;;;;5051280;28;20124;-50
2024/01/21 02:42:34;;;;;;;22.02;12.80;;;;;;;;;;5056865;28;20399;-51
2024/01/21 02:45:00;;;;;;;19.00;11.83;;;;;;;;;;5050805;28;20032;-51
2024/01/21 02:47:26;;;;;;;19.38;11.85;;;;;;;;;;5051043;28;20506;-50
2024/01/21 02:49:53;;;;;;;22.83;13.47;;;;;;;;;;5051249;28;20021;-54
2024/01/21 02:52:19;;;;;;;21.67;13.40;;;;;;;;;;5051460;28;20831;-50
2024/01/21 02:54:45;;;;;;;17.63;12.70;;;;;;;;;;5050955;28;20537;-50
2024/01/21 02:57:11;;;;;;;22.73;13.23;;;;;;;;;;5050972;28;20032;-51
2024/01/21 02:59:37;;;;;;;25.13;12.27;;;;;;;;;;5051061;28;20029;-52
2024/01/21 03:02:04;;;;;;;19.98;13.32;;;;;;;;;;5050413;28;20017;-51
2024/01/21 03:04:30;;;;;;;20.83;12.77;;;;;;;;;;5050824;28;20475;-49
2024/01/21 03:06:57;;;;;;;21.77;14.07;;;;;;;;;;5050836;28;20274;-50
2024/01/21 03:09:23;;;;;;;20.83;12.60;;;;;;;;;;5050153;28;20036;-51
2024/01/21 03:11:49;;;;;;;17.43;12.43;;;;;;;;;;5050716;28;20036;-51
2024/01/21 03:14:15;;;;;;;22.80;12.67;;;;;;;;;;5051832;28;20025;-50
2024/01/21 03:16:41;;;;;;;23.75;13.60;;;;;;;;;;5054187;28;20271;-50
2024/01/21 03:19:07;;;;;;;23.67;14.33;;;;;;;;;;5054695;28;20035;-49
2024/01/21 03:21:34;;;;;;;21.88;12.80;;;;;;;;;;5053710;28;20294;-50
2024/01/21 03:24:00;;;;;;;27.53;12.90;;;;;;;;;;5036593;28;20115;-52
2024/01/21 03:26:26;;;;;;;21.90;12.70;;;;;;;;;;5054549;28;20029;-51
2024/01/21 03:28:52;;;;;;;18.80;12.20;;;;;;;;;;5054981;28;20400;-52
2024/01/21 03:31:21;;;;;;;17.80;12.15;;;;;;;;;;5036481;28;20455;-51
2024/01/21 03:33:48;;;;;;;21.90;12.52;;;;;;;;;;5054185;28;20032;-52
2024/01/21 03:36:14;;;;;;;28.27;12.60;;;;;;;;;;5036705;28;20064;-50
2024/01/21 03:38:40;;;;;;;20.60;12.73;;;;;;;;;;5054416;28;20103;-50
2024/01/21 03:41:07;;;;;;;20.87;12.73;;;;;;;;;;5054355;28;20021;-52
2024/01/21 03:43:33;;;;;;;23.73;12.27;;;;;;;;;;5053668;28;20270;-51
2024/01/21 03:45:59;;;;;;;24.27;12.45;;;;;;;;;;5053961;28;20028;-52
2024/01/21 03:48:25;;;;;;;19.17;12.73;;;;;;;;;;5054000;28;20029;-49
2024/01/21 03:50:51;;;;;;;21.43;12.90;;;;;;;;;;5035794;28;20144;-51
2024/01/21 03:53:17;;;;;;;19.00;12.30;;;;;;;;;;5053966;28;20391;-52
2024/01/21 03:55:44;;;;;;;24.50;13.45;;;;;;;;;;5058430;28;20068;-51
2024/01/21 03:58:10;;;;;;;21.30;12.60;;;;;;;;;;5053833;28;20388;-51
2024/01/21 04:00:36;;;;;;;20.03;12.67;;;;;;;;;;5053922;28;20259;-52
2024/01/21 04:03:02;;;;;;;23.60;13.53;;;;;;;;;;5055103;28;20043;-51
2024/01/21 04:05:28;;;;;;;20.37;12.93;;;;;;;;;;5035854;28;20023;-52
2024/01/21 04:07:54;;;;;;;20.17;12.97;;;;;;;;;;5053996;28;20039;-50
2024/01/21 04:10:21;;;;;;;19.03;10.57;;;;;;;;;;5053853;28;20033;-50
2024/01/21 04:12:47;;;;;;;22.77;13.73;;;;;;;;;;5053163;28;20482;-49
2024/01/21 04:15:13;;;;;;;20.50;13.20;;;;;;;;;;5053252;28;20100;-52
2024/01/21 04:17:39;;;;;;;24.25;13.95;;;;;;;;;;5036114;28;20033;-49
2024/01/21 04:20:07;;;;;;;21.75;13.98;;;;;;;;;;5053698;28;20021;-50
2024/01/21 04:22:34;;;;;;;21.10;12.68;;;;;;;;;;5053509;28;20112;-50
2024/01/21 04:25:00;;;;;;;23.30;13.30;;;;;;;;;;5035346;28;20029;-51
2024/01/21 04:27:26;;;;;;;23.80;13.40;;;;;;;;;;5052467;28;20391;-52
2024/01/21 04:29:52;;;;;;;22.27;14.07;;;;;;;;;;5053542;28;20033;-51
2024/01/21 04:32:18;;;;;;;22.70;13.67;;;;;;;;;;5035323;28;20091;-51
2024/01/21 04:34:45;;;;;;;21.23;12.50;;;;;;;;;;5053008;28;20033;-51
2024/01/21 04:37:11;;;;;;;18.83;12.90;;;;;;;;;;5018820;28;20033;-55
2024/01/21 04:39:37;;;;;;;21.60;13.68;;;;;;;;;;5053337;28;20689;-50
2024/01/21 04:42:03;;;;;;;21.53;13.93;;;;;;;;;;5053074;28;20024;-51
2024/01/21 04:44:30;;;;;;;21.70;13.38;;;;;;;;;;5052739;28;20044;-50
2024/01/21 04:46:56;;;;;;;19.55;13.13;;;;;;;;;;5038981;22;20037;-52
2024/01/21 04:49:22;;;;;;;21.57;13.37;;;;;;;;;;5022596;28;20080;-52
2024/01/21 04:51:48;;;;;;;23.83;14.23;;;;;;;;;;5012282;28;20472;-50
2024/01/21 04:54:14;;;;;;;21.98;14.07;;;;;;;;;;5022943;28;20030;-55
2024/01/21 04:56:41;;;;;;;21.53;12.87;;;;;;;;;;5022737;28;20424;-51
2024/01/21 04:59:09;;;;;;;23.27;13.40;;;;;;;;;;5017031;28;20253;-50
2024/01/21 05:01:35;;;;;;;20.23;12.35;;;;;;;;;;5018239;28;20113;-51
2024/01/21 05:04:02;;;;;;;23.40;13.90;;;;;;;;;;5014174;28;20022;-51
2024/01/21 05:06:28;;;;;;;20.23;13.53;;;;;;;;;;5014425;28;20271;-53
2024/01/21 05:08:54;;;;;;;21.60;14.23;;;;;;;;;;5020398;28;20035;-50
2024/01/21 05:11:20;;;;;;;17.92;10.93;;;;;;;;;;5032900;28;20064;-54
2024/01/21 05:13:46;;;;;;;24.57;14.57;;;;;;;;;;5031275;28;20033;-53
2024/01/21 05:16:12;;;;;;;24.17;14.55;;;;;;;;;;5023311;28;20268;-53
2024/01/21 05:18:39;;;;;;;23.45;14.23;;;;;;;;;;5015486;28;20144;-52
2024/01/21 05:21:05;;;;;;;22.05;13.77;;;;;;;;;;5031162;28;20029;-51
2024/01/21 05:23:33;;;;;;;23.13;13.93;;;;;;;;;;5019563;28;20113;-51
2024/01/21 05:25:59;;;;;;;19.95;12.25;;;;;;;;;;5032116;28;20647;-50
2024/01/21 05:28:26;;;;;;;20.58;14.02;;;;;;;;;;5026731;28;20029;-51
2024/01/21 05:30:52;;;;;;;20.60;13.63;;;;;;;;;;5013008;28;20029;-51
2024/01/21 05:33:18;;;;;;;26.08;14.75;;;;;;;;;;5011768;28;20276;-51
2024/01/21 05:35:44;;;;;;;30.33;14.48;;;;;;;;;;5012663;28;20105;-51
2024/01/21 05:38:10;;;;;;;24.88;14.05;;;;;;;;;;5011311;28;20037;-52
2024/01/21 05:40:37;;;;;;;27.90;13.43;;;;;;;;;;5018770;28;20022;-55
2024/01/21 05:43:03;;;;;;;24.33;13.93;;;;;;;;;;5032564;28;20272;-55
2024/01/21 05:45:29;;;;;;;25.40;14.70;;;;;;;;;;5032130;28;20112;-54
2024/01/21 05:47:55;;;;;;;23.03;14.17;;;;;;;;;;5032616;28;20021;-52
2024/01/21 05:50:21;;;;;;;26.47;15.00;;;;;;;;;;5032377;28;20120;-52
2024/01/21 05:52:47;;;;;;;23.00;14.13;;;;;;;;;;5032212;28;20036;-54
2024/01/21 05:55:14;;;;;;;24.03;14.77;;;;;;;;;;5029965;28;20049;-50
2024/01/21 05:57:40;;;;;;;19.10;13.77;;;;;;;;;;4999851;28;20026;-50
2024/01/21 06:00:07;;;;;;;;;;;;;;;;;;5030433;28;20054;-50
2024/01/21 06:02:38;;;;;;;26.33;14.32;;;;;;;;;;5012499;28;19960;-50
2024/01/21 06:05:05;;;;;;;25.05;14.85;;;;;;;;;;5012209;28;20473;-50
2024/01/21 06:07:31;;;;;;;25.20;15.25;;;;;;;;;;5015665;28;20045;-53
2024/01/21 06:09:57;;;;;;;23.77;14.13;;;;;;;;;;5029142;28;20028;-54
2024/01/21 06:12:23;;;;;;;25.35;14.55;;;;;;;;;;5022066;28;20029;-52
2024/01/21 06:14:50;;;;;;;22.30;13.33;;;;;;;;;;5013744;28;20480;-53
2024/01/21 06:17:16;;;;;;;21.13;13.47;;;;;;;;;;5026255;28;20030;-55
2024/01/21 06:19:42;;;;;;;21.23;14.33;;;;;;;;;;5031692;28;20343;-50
2024/01/21 06:22:08;;;;;;;25.37;14.43;;;;;;;;;;5017514;28;20496;-51
2024/01/21 06:24:36;;;;;;;22.10;13.57;;;;;;;;;;5020119;28;20030;-50
2024/01/21 06:27:02;;;;;;;32.67;14.75;;;;;;;;;;5015110;28;20029;-53
2024/01/21 06:29:28;;;;;;;21.40;13.97;;;;;;;;;;5031582;28;20041;-55
2024/01/21 06:31:55;;;;;;;26.05;14.88;;;;;;;;;;5028850;28;20025;-51
2024/01/21 06:34:21;;;;;;;20.63;13.80;;;;;;;;;;5011759;28;20041;-51
2024/01/21 06:36:47;;;;;;;22.03;12.47;;;;;;;;;;5011842;28;20034;-52
2024/01/21 06:39:14;;;;;;;19.80;13.63;;;;;;;;;;5012801;28;20053;-52
2024/01/21 06:41:40;;;;;;;26.53;14.57;;;;;;;;;;5013249;28;20279;-50
2024/01/21 06:44:06;;;;;;;26.70;13.37;;;;;;;;;;5017377;28;20037;-50
2024/01/21 06:46:32;;;;;;;23.00;14.23;;;;;;;;;;5025959;28;20474;-50
2024/01/21 06:48:59;;;;;;;18.17;10.77;;;;;;;;;;5031668;28;20116;-47
2024/01/21 06:51:32;;;;;;;23.63;14.40;;;;;;;;;;5035251;28;20264;-47
2024/01/21 06:53:59;;;;;;;24.90;13.35;;;;;;;;;;5016252;28;20185;-46
2024/01/21 06:56:26;;;;;;;20.75;13.55;;;;;;;;;;5028119;28;20488;-48
2024/01/21 06:58:52;;;;;;;25.52;13.75;;;;;;;;;;5016862;28;20134;-53
2024/01/21 07:01:18;;;;;;;25.92;15.90;;;;;;;;;;5025414;28;20036;-56
2024/01/21 07:03:48;;;;;;;21.90;14.23;;;;;;;;;;5016703;28;20113;-51
2024/01/21 07:06:14;;;;;;;26.20;16.02;;;;;;;;;;5016583;28;20392;-50
2024/01/21 07:08:41;;;;;;;23.70;15.20;;;;;;;;;;5015708;28;20034;-49
2024/01/21 07:11:10;;;;;;;27.95;16.38;;;;;;;;;;5018503;28;20339;-51
2024/01/21 07:13:36;;;;;;;26.70;15.60;;;;;;;;;;5035431;28;20029;-53
2024/01/21 07:16:03;;;;;;;24.80;15.38;;;;;;;;;;5023752;28;20056;-52
2024/01/21 07:18:29;;;;;;;25.02;16.77;;;;;;;;;;5028240;28;20025;-49
2024/01/21 07:20:55;;;;;;;30.77;18.25;;;;;;;;;;5031930;28;20102;-53
2024/01/21 07:23:22;;;;;;;27.80;17.42;;;;;;;;;;5035158;28;20079;-52
2024/01/21 07:25:48;;;;;;;30.80;17.00;;;;;;;;;;5034771;28;20092;-52
2024/01/21 07:28:17;;;;;;;26.83;17.00;;;;;;;;;;5034973;28;20033;-51
2024/01/21 07:30:45;;;;;;;26.67;16.65;;;;;;;;;;5029242;28;20068;-54
2024/01/21 07:33:11;;;;;;;27.67;18.50;;;;;;;;;;5021866;28;20065;-54
2024/01/21 07:35:37;;;;;;;29.63;18.02;;;;;;;;;;5014795;28;20029;-50
2024/01/21 07:38:04;;;;;;;27.98;17.48;;;;;;;;;;5014892;28;20492;-50
2024/01/21 07:40:31;;;;;;;31.17;17.38;;;;;;;;;;5015013;28;20022;-49
2024/01/21 07:42:58;;;;;;;27.75;17.20;;;;;;;;;;5014919;28;20495;-51
2024/01/21 07:45:24;;;;;;;30.63;17.67;;;;;;;;;;5016921;28;20511;-48
2024/01/21 07:47:51;;;;;;;31.58;19.65;;;;;;;;;;5027572;28;20045;-54
2024/01/21 07:50:17;;;;;;;30.92;20.35;;;;;;;;;;5026208;28;20060;-51
2024/01/21 07:52:44;;;;;;;31.63;18.33;;;;;;;;;;5023028;28;20037;-53
2024/01/21 07:55:10;;;;;;;32.90;20.38;;;;;;;;;;5032997;28;20026;-48
2024/01/21 07:57:36;;;;;;;51.83;19.33;;;;;;;;;;5023180;28;20515;-49
2024/01/21 08:00:03;;;;;;;29.55;18.73;;;;;;;;;;5019963;28;20256;-48
2024/01/21 08:02:30;;;;;;;30.02;19.98;;;;;;;;;;5019472;28;20041;-49
2024/01/21 08:04:57;;;;;;;33.63;20.43;;;;;;;;;;5015829;28;20076;-49
2024/01/21 08:07:23;;;;;;;33.58;20.98;;;;;;;;;;5016609;28;20076;-50
2024/01/21 08:09:49;;;;;;;37.97;22.13;;;;;;;;;;5026752;28;20642;-51
2024/01/21 08:12:16;;;;;;;32.28;21.40;;;;;;;;;;5012330;28;20080;-57
2024/01/21 08:14:42;;;;;;;38.13;20.58;;;;;;;;;;5013228;28;20040;-49
2024/01/21 08:17:09;;;;;;;43.43;22.13;;;;;;;;;;5013244;28;20030;-50
2024/01/21 08:19:38;;;;;;;37.35;22.52;;;;;;;;;;5013527;28;20260;-49
2024/01/21 08:22:04;;;;;;;36.38;21.00;;;;;;;;;;5012592;28;20017;-52
2024/01/21 08:24:31;;;;;;;31.67;20.15;;;;;;;;;;5013254;28;20021;-52
2024/01/21 08:26:58;;;;;;;31.57;19.97;;;;;;;;;;5013223;28;20022;-51
2024/01/21 08:29:24;;;;;;;30.45;21.02;;;;;;;;;;5023904;28;20268;-50
2024/01/21 08:31:50;;;;;;;35.63;19.97;;;;;;;;;;5030523;28;20372;-49
2024/01/21 08:34:17;;;;;;;33.20;19.65;;;;;;;;;;5025350;28;20032;-52
2024/01/21 08:36:43;;;;;;;36.17;20.87;;;;;;;;;;5013924;28;20034;-53
2024/01/21 08:39:09;;;;;;;26.47;16.83;;;;;;;;;;5013932;28;20535;-51
2024/01/21 08:41:35;;;;;;;28.55;18.42;;;;;;;;;;5012456;28;20813;-50
2024/01/21 08:44:03;;;;;;;30.88;18.05;;;;;;;;;;5013709;28;20030;-49
2024/01/21 08:46:29;;;;;;;32.08;19.13;;;;;;;;;;5013618;28;20042;-49
2024/01/21 08:48:55;;;;;;;28.13;17.73;;;;;;;;;;5013759;28;20021;-52
2024/01/21 08:51:22;;;;;;;28.38;17.48;;;;;;;;;;5012472;28;20797;-49
2024/01/21 08:53:55;;;;;;;28.83;18.33;;;;;;;;;;5013704;28;20026;-49
2024/01/21 08:56:23;;;;;;;29.60;17.90;;;;;;;;;;5013282;28;20036;-49
2024/01/21 08:58:49;;;;;;;26.65;17.55;;;;;;;;;;5012012;28;20137;-53
2024/01/21 09:01:16;;;;;;;25.95;17.83;;;;;;;;;;5013457;28;20117;-49
2024/01/21 09:03:42;;;;;;;24.95;17.17;;;;;;;;;;5013440;28;20044;-49
2024/01/21 09:06:09;;;;;;;27.13;16.20;;;;;;;;;;5013435;28;20022;-53
2024/01/21 09:08:35;;;;;;;;;;;;;;;;;;5012676;28;20289;-52
2024/01/21 09:11:01;;;;;;;26.05;16.38;;;;;;;;;;5013258;28;19909;-49
2024/01/21 09:13:28;;;;;;;33.40;18.27;;;;;;;;;;5011450;28;20026;-51
2024/01/21 09:15:54;;;;;;;25.10;15.53;;;;;;;;;;5012089;28;20065;-50
2024/01/21 09:18:20;;;;;;;23.08;16.65;;;;;;;;;;5013235;28;20034;-54
2024/01/21 09:20:47;;;;;;;23.27;15.35;;;;;;;;;;5013236;28;20029;-54
2024/01/21 09:23:13;;;;;;;23.37;13.97;;;;;;;;;;5012650;28;20538;-52
2024/01/21 09:25:40;;;;;;;24.17;15.82;;;;;;;;;;5011309;28;20499;-51
2024/01/21 09:28:06;;;;;;;23.30;15.90;;;;;;;;;;5011869;28;20504;-49
2024/01/21 09:30:33;;;;;;;28.23;16.88;;;;;;;;;;5012734;28;20409;-49
2024/01/21 09:32:59;;;;;;;30.45;15.80;;;;;;;;;;5012897;28;20495;-56
2024/01/21 09:35:25;;;;;;;25.17;16.37;;;;;;;;;;5012649;28;20121;-51
2024/01/21 09:37:51;;;;;;;23.10;15.45;;;;;;;;;;5012618;28;20492;-55
2024/01/21 09:40:17;;;;;;;22.10;15.10;;;;;;;;;;5012779;28;20064;-52
2024/01/21 09:42:44;;;;;;;24.03;17.00;;;;;;;;;;5011576;28;20464;-52
2024/01/21 09:45:10;;;;;;;29.53;16.40;;;;;;;;;;5011016;28;20057;-52
2024/01/21 09:47:41;;;;;;;26.52;16.38;;;;;;;;;;5012743;28;20281;-50
2024/01/21 09:50:08;;;;;;;28.00;16.50;;;;;;;;;;5012590;28;20077;-50
2024/01/21 09:52:34;;;;;;;24.08;16.83;;;;;;;;;;5011224;28;20034;-50
2024/01/21 09:55:01;;;;;;;26.05;16.48;;;;;;;;;;5011041;28;20029;-50
2024/01/21 09:57:27;;;;;;;26.10;17.02;;;;;;;;;;5012464;28;20030;-48
2024/01/21 09:59:55;;;;;;;21.55;15.35;;;;;;;;;;5012441;28;20439;-50
2024/01/21 10:02:22;;;;;;;22.50;14.80;;;;;;;;;;5012345;28;20079;-48
2024/01/21 10:04:51;;;;;;;23.90;15.95;;;;;;;;;;5012144;28;20037;-47
2024/01/21 10:07:17;;;;;;;20.65;15.45;;;;;;;;;;5011078;28;20489;-48
2024/01/21 10:09:53;;;;;;;24.70;15.68;;;;;;;;;;5012435;28;20038;-53
2024/01/21 10:12:19;;;;;;;21.88;15.25;;;;;;;;;;5012381;28;20038;-50
2024/01/21 10:14:45;;;;;;;24.63;16.10;;;;;;;;;;5012179;28;20040;-52
2024/01/21 10:17:12;;;;;;;28.73;16.77;;;;;;;;;;5012071;28;20044;-49
2024/01/21 10:19:38;;;;;;;22.98;15.82;;;;;;;;;;5012209;28;20021;-57
2024/01/21 10:22:11;;;;;;;20.67;14.90;;;;;;;;;;5012098;28;20510;-50
2024/01/21 10:24:38;;;;;;;24.13;14.38;;;;;;;;;;5011012;28;20025;-50
2024/01/21 10:27:07;;;;;;;19.95;12.70;;;;;;;;;;5011980;28;20029;-50
2024/01/21 10:29:33;;;;;;;19.25;13.60;;;;;;;;;;5011966;28;20026;-49
2024/01/21 10:31:59;;;;;;;24.60;14.25;;;;;;;;;;5011980;28;20484;-49
2024/01/21 10:34:27;;;;;;;23.52;13.05;;;;;;;;;;5010596;28;20029;-49
2024/01/21 10:36:53;;;;;;;18.75;13.60;;;;;;;;;;5010490;28;20034;-49
2024/01/21 10:39:21;;;;;;;18.20;12.53;;;;;;;;;;5011897;28;20112;-48
2024/01/21 10:41:47;;;;;;;27.40;13.43;;;;;;;;;;5012220;28;20265;-48
2024/01/21 10:44:14;;;;;;;16.33;12.33;;;;;;;;;;5010353;28;20083;-48
2024/01/21 10:46:42;;;;;;;16.55;12.60;;;;;;;;;;5012103;28;20352;-48
2024/01/21 10:49:11;;;;;;;16.17;11.82;;;;;;;;;;5011693;28;20137;-48
2024/01/21 10:51:38;;;;;;;17.77;11.35;;;;;;;;;;5011741;28;20044;-49
2024/01/21 10:54:04;;;;;;;;;;;;;;;;;;5012027;28;20117;-47
2024/01/21 10:56:31;;;;;;;15.65;11.57;;;;;;;;;;5011618;28;19909;-47
2024/01/21 10:58:57;;;;;;;20.88;13.43;;;;;;;;;;5011416;28;20034;-48
2024/01/21 11:01:24;;;;;;;15.60;11.07;;;;;;;;;;5010295;28;20062;-48
2024/01/21 11:03:55;;;;;;;;;;;;;;;;;;5011876;28;20026;-47
2024/01/21 11:06:22;;;;;;;18.15;12.65;;;;;;;;;;5010330;28;20375;-48
2024/01/21 11:08:48;;;;;;;;;;;;;;;;;;5012075;28;20073;-49
2024/01/21 11:11:16;;;;;;;18.00;11.63;;;;;;;;;;5011617;28;19917;-49
2024/01/21 11:13:46;;;;;;;18.48;11.48;;;;;;;;;;5009705;28;20130;-48
2024/01/21 11:16:14;;;;;;;21.30;13.10;;;;;;;;;;5011479;28;20061;-49
2024/01/21 11:18:43;;;;;;;17.13;12.15;;;;;;;;;;5011453;28;20436;-49
2024/01/21 11:21:09;;;;;;;20.08;12.82;;;;;;;;;;5010396;28;20034;-49
2024/01/21 11:23:35;;;;;;;19.90;13.07;;;;;;;;;;5011212;28;20076;-50
2024/01/21 11:26:01;;;;;;;19.60;13.70;;;;;;;;;;5010055;28;20031;-47
2024/01/21 11:28:28;;;;;;;23.50;15.13;;;;;;;;;;5011380;28;20528;-49
2024/01/21 11:30:54;;;;;;;;;;;;;;;;;;5012114;28;20564;-48
2024/01/21 11:33:23;;;;;;;22.98;13.93;;;;;;;;;;5011544;28;19906;-50
2024/01/21 11:35:50;;;;;;;20.63;14.90;;;;;;;;;;5012835;28;20045;-52
2024/01/21 11:38:16;;;;;;;20.17;14.68;;;;;;;;;;5013774;28;20145;-48
2024/01/21 11:40:42;;;;;;;17.70;12.85;;;;;;;;;;5014893;28;20489;-48
2024/01/21 11:43:08;;;;;;;22.60;12.27;;;;;;;;;;5014977;28;20026;-49
2024/01/21 11:45:34;;;;;;;19.45;12.13;;;;;;;;;;5013460;28;20044;-57
2024/01/21 11:48:01;;;;;;;17.73;12.70;;;;;;;;;;5015596;28;20396;-48
2024/01/21 11:50:27;;;;;;;16.37;11.93;;;;;;;;;;5016902;28;20021;-50
2024/01/21 11:52:53;;;;;;;16.08;12.27;;;;;;;;;;5013384;28;20052;-48
2024/01/21 11:55:22;;;;;;;14.15;11.75;;;;;;;;;;5012286;28;20041;-53
2024/01/21 11:57:48;;;;;;;16.63;11.57;;;;;;;;;;5013340;28;20079;-50
2024/01/21 12:00:17;;;;;;;23.35;12.45;;;;;;;;;;5013841;28;20017;-50
2024/01/21 12:02:43;;;;;;;22.67;13.07;;;;;;;;;;5009887;28;20506;-50
2024/01/21 12:05:09;;;;;;;20.05;12.65;;;;;;;;;;5011195;28;20080;-51
2024/01/21 12:07:36;;;;;;;18.65;13.82;;;;;;;;;;5022713;28;20777;-49
2024/01/21 12:10:02;;;;;;;16.30;12.27;;;;;;;;;;5019436;28;20048;-48
2024/01/21 12:12:28;;;;;;;19.07;12.93;;;;;;;;;;5031205;28;20029;-49
2024/01/21 12:14:54;;;;;;;16.35;12.40;;;;;;;;;;5032385;28;20041;-51
2024/01/21 12:17:21;;;;;;;19.02;11.40;;;;;;;;;;5013723;28;20026;-52
2024/01/21 12:19:47;;;;;;;17.15;11.73;;;;;;;;;;5014130;28;20014;-49
2024/01/21 12:22:14;;;;;;;16.73;11.80;;;;;;;;;;5018096;28;20369;-49
2024/01/21 12:24:40;;;;;;;18.90;12.43;;;;;;;;;;5011577;28;20265;-48
2024/01/21 12:27:08;;;;;;;14.35;10.98;;;;;;;;;;5029655;28;20033;-53
2024/01/21 12:29:39;;;;;;;19.77;11.85;;;;;;;;;;5027632;28;20033;-53
2024/01/21 12:32:09;;;;;;;19.00;13.65;;;;;;;;;;5013268;28;20029;-50
2024/01/21 12:34:35;;;;;;;21.15;14.60;;;;;;;;;;5012245;28;20694;-53
2024/01/21 12:37:01;;;;;;;17.03;12.70;;;;;;;;;;5013266;28;20093;-50
2024/01/21 12:39:27;;;;;;;16.63;11.30;;;;;;;;;;4996399;28;20038;-52
2024/01/21 12:41:54;;;;;;;14.63;11.70;;;;;;;;;;5029177;28;20133;-51
2024/01/21 12:44:21;;;;;;;15.43;12.13;;;;;;;;;;5032014;28;20081;-50
2024/01/21 12:46:47;;;;;;;18.38;12.15;;;;;;;;;;5016892;28;20041;-50
2024/01/21 12:49:13;;;;;;;15.65;10.68;;;;;;;;;;4994763;28;20030;-52
2024/01/21 12:51:42;;;;;;;16.37;12.43;;;;;;;;;;5011911;28;20124;-51
2024/01/21 12:54:08;;;;;;;16.52;12.48;;;;;;;;;;5011884;28;20034;-49
2024/01/21 12:56:34;;;;;;;15.98;13.02;;;;;;;;;;5027610;28;20128;-50
2024/01/21 12:59:00;;;;;;;17.67;12.18;;;;;;;;;;5031703;28;20080;-52
2024/01/21 13:01:27;;;;;;;16.20;11.65;;;;;;;;;;5020221;28;20064;-52
2024/01/21 13:03:54;;;;;;;16.30;10.82;;;;;;;;;;5011808;28;20402;-50
2024/01/21 13:06:20;;;;;;;15.00;11.98;;;;;;;;;;5025243;28;20053;-54
2024/01/21 13:08:46;;;;;;;18.60;11.50;;;;;;;;;;5031396;28;20029;-50
2024/01/21 13:11:13;;;;;;;13.85;10.90;;;;;;;;;;5015449;28;20026;-50
2024/01/21 13:13:39;;;;;;;16.65;11.80;;;;;;;;;;5011748;28;20049;-52
2024/01/21 13:16:08;;;;;;;18.50;10.85;;;;;;;;;;5014895;28;20643;-49
2024/01/21 13:18:34;;;;;;;13.32;10.55;;;;;;;;;;5011831;28;20069;-50
2024/01/21 13:21:00;;;;;;;17.05;10.52;;;;;;;;;;5011327;28;20438;-49
2024/01/21 13:23:27;;;;;;;15.90;10.73;;;;;;;;;;5024926;28;20079;-48
2024/01/21 13:25:53;;;;;;;14.23;10.38;;;;;;;;;;5019239;28;20033;-49
2024/01/21 13:30:53;;;;;;;19.75;11.10;;;;;;;;;;5001878;28;20030;-51
2024/01/21 13:33:22;;;;;;;15.05;10.98;;;;;;;;;;5024328;28;20026;-49
2024/01/21 13:35:48;;;;;;;16.75;11.75;;;;;;;;;;5012368;28;20061;-49
2024/01/21 13:38:16;;;;;;;12.68;10.07;;;;;;;;;;5012779;28;20087;-51
2024/01/21 13:40:42;;;;;;;13.50;10.48;;;;;;;;;;5009939;28;20032;-50
2024/01/21 13:43:09;;;;;;;14.07;10.82;;;;;;;;;;5012723;28;20030;-50
2024/01/21 13:45:39;;;;;;;13.87;10.60;;;;;;;;;;5012340;28;20038;-48
2024/01/21 13:48:06;;;;;;;14.63;10.68;;;;;;;;;;5012922;28;20030;-49
2024/01/21 13:50:33;;;;;;;17.27;10.82;;;;;;;;;;5010912;28;20030;-49
2024/01/21 13:53:01;;;;;;;14.02;10.52;;;;;;;;;;4993549;28;20085;-50
2024/01/21 13:55:27;;;;;;;12.75;10.15;;;;;;;;;;5011553;28;20068;-51
2024/01/21 13:57:54;;;;;;;17.15;10.77;;;;;;;;;;5012328;28;20416;-49
2024/01/21 14:00:22;;;;;;;13.40;10.40;;;;;;;;;;5011181;28;20041;-50
2024/01/21 14:02:49;;;;;;;13.73;10.60;;;;;;;;;;5012391;28;20073;-50
2024/01/21 14:05:15;;;;;;;14.82;10.57;;;;;;;;;;5012197;28;20490;-49
2024/01/21 14:07:41;;;;;;;11.73;9.70;;;;;;;;;;5012345;28;20080;-50
2024/01/21 14:10:08;;;;;;;13.98;10.52;;;;;;;;;;5012362;28;20229;-48
2024/01/21 14:12:35;;;;;;;14.02;9.95;;;;;;;;;;5012358;28;20037;-52
2024/01/21 14:15:01;;;;;;;;;;;;;;;;;;5012252;28;20033;-51
2024/01/21 14:17:28;;;;;;;14.77;9.98;;;;;;;;;;5012137;28;19916;-49
2024/01/21 14:19:55;;;;;;;15.32;11.68;;;;;;;;;;5012026;28;20041;-50